Time;durP1;ratioP1;P1;durP2;ratioP2;P2;SDS_P1;SDS_P2;PMS_P1;PMS_P2;Temp;Humidity;BMP_temperature;BMP_pressure;BME280_temperature;BME280_humidity;BME280_pressure;Samples;Min_cycle;Max_cycle;Signal;HPM_P1;HPM_P2
2022/01/14 00:00:56;;;;;;;;;57.25;45.25;;;;;4.42;66.48;103664.81;5064381;28;45637;-82
2022/01/14 00:03:22;;;;;;;;;54.00;42.25;;;;;4.42;66.30;103649.19;5075559;28;46807;-80
2022/01/14 00:05:48;;;;;;;;;48.25;39.00;;;;;4.37;66.05;103640.34;5061300;28;45187;-80
2022/01/14 00:08:13;;;;;;;;;46.25;36.75;;;;;4.37;66.02;103638.59;5061802;28;45224;-80
2022/01/14 00:10:41;;;;;;;;;49.50;41.00;;;;;4.40;66.07;103640.44;5072460;28;45453;-80
2022/01/14 00:13:16;;;;;;;;;44.00;39.00;;;;;4.37;65.90;103646.41;5063382;28;45221;-80
2022/01/14 00:15:41;;;;;;;;;51.25;40.00;;;;;4.36;66.07;103638.53;5073498;28;45452;-80
2022/01/14 00:18:06;;;;;;;;;56.00;42.50;;;;;4.35;66.19;103637.66;5069774;28;45387;-79
2022/01/14 00:20:32;;;;;;;;;52.25;39.50;;;;;4.35;65.89;103626.34;5061293;28;45373;-79
2022/01/14 00:22:59;;;;;;;;;55.25;42.00;;;;;4.36;66.36;103633.34;5060901;28;46007;-79
2022/01/14 00:33:28;;;;;;;;;52.25;41.75;;;;;4.30;66.69;103633.97;5061163;28;45330;-79
2022/01/14 00:35:54;;;;;;;;;53.25;42.75;;;;;4.28;66.41;103630.41;5066439;28;46294;-80
2022/01/14 00:38:19;;;;;;;;;57.25;42.50;;;;;4.29;66.07;103627.00;5079791;28;45330;-80
2022/01/14 00:40:45;;;;;;;;;46.25;38.25;;;;;4.27;66.06;103632.13;5095246;27;45436;-81
2022/01/14 00:43:11;;;;;;;;;53.25;43.75;;;;;4.26;66.50;103626.88;5064504;28;45389;-81
2022/01/14 00:45:38;;;;;;;;;59.50;42.50;;;;;4.28;65.93;103628.69;5064598;28;46431;-81
2022/01/14 00:48:03;;;;;;;;;58.00;41.50;;;;;4.26;65.96;103622.56;5070096;28;45880;-84
2022/01/14 00:50:30;;;;;;;;;57.75;43.50;;;;;4.27;66.25;103623.44;5080602;27;45354;-83
2022/01/14 00:52:55;;;;;;;;;55.50;44.25;;;;;4.26;66.44;103621.66;5064997;28;45220;-82
2022/01/14 00:55:28;;;;;;;;;54.50;44.00;;;;;4.24;66.28;103621.59;5062578;27;46271;-81
2022/01/14 01:00:28;;;;;;;;;54.00;42.50;;;;;4.22;66.51;103620.63;5061305;28;45405;-81
2022/01/14 01:02:54;;;;;;;;;50.50;41.75;;;;;4.22;65.94;103625.84;5078727;28;45552;-79
2022/01/14 01:05:20;;;;;;;;;53.75;41.50;;;;;4.21;66.42;103626.69;5080155;27;45252;-81
2022/01/14 01:07:55;;;;;;;;;46.75;39.50;;;;;4.20;66.46;103627.50;5071685;28;45785;-82
2022/01/14 01:10:23;;;;;;;;;57.25;43.00;;;;;4.19;66.51;103623.13;5080300;28;45425;-82
2022/01/14 01:15:16;;;;;;;;;55.00;41.75;;;;;4.18;65.94;103631.75;5080044;28;46066;-81
2022/01/14 01:17:42;;;;;;;;;50.75;44.00;;;;;4.16;66.20;103636.00;5079699;28;45867;-81
2022/01/14 01:20:11;;;;;;;;;51.75;42.00;;;;;4.17;66.44;103640.41;5081058;28;45243;-79
2022/01/14 01:22:36;;;;;;;;;50.25;41.25;;;;;4.17;66.50;103632.59;5076919;28;45584;-79
2022/01/14 01:25:03;;;;;;;;;54.50;43.00;;;;;4.18;66.56;103631.75;5071178;28;46181;-80
2022/01/14 01:27:30;;;;;;;;;58.50;42.50;;;;;4.19;66.04;103635.25;5060312;28;45416;-79
2022/01/14 01:30:12;;;;;;;;;56.75;46.00;;;;;4.14;66.10;103624.66;5075427;28;45350;-80
2022/01/14 01:32:38;;;;;;;;;50.00;42.75;;;;;4.16;66.42;103631.69;5060824;28;45529;-80
2022/01/14 01:35:03;;;;;;;;;51.25;41.50;;;;;4.16;66.61;103625.59;5060167;28;45634;-80
2022/01/14 01:37:29;;;;;;;;;57.00;44.50;;;;;4.15;66.82;103624.69;5060579;28;45263;-80
2022/01/14 01:39:54;;;;;;;;;52.75;42.00;;;;;4.13;66.59;103620.25;5073932;28;45474;-80
2022/01/14 01:42:26;;;;;;;;;52.25;42.00;;;;;4.14;66.09;103627.25;5068627;28;45407;-79
2022/01/14 01:44:52;;;;;;;;;52.50;41.75;;;;;4.13;66.32;103620.25;5080621;28;46302;-80
2022/01/14 01:47:19;;;;;;;;;62.00;43.00;;;;;4.12;66.38;103622.00;5075193;28;45342;-80
2022/01/14 01:49:45;;;;;;;;;62.00;45.75;;;;;4.12;66.10;103627.22;5079633;28;45436;-80
2022/01/14 01:52:10;;;;;;;;;60.00;45.50;;;;;4.11;66.01;103616.72;5065130;28;45487;-80
2022/01/14 01:54:35;;;;;;;;;62.00;47.25;;;;;4.11;66.45;103619.31;5065573;28;45400;-80
2022/01/14 01:57:01;;;;;;;;;56.00;46.75;;;;;4.13;66.51;103628.06;5078025;27;45311;-80
2022/01/14 01:59:28;;;;;;;;;60.75;48.25;;;;;4.10;66.16;103630.56;5080651;28;45239;-80
2022/01/14 02:01:59;;;;;;;;;58.25;45.00;;;;;4.07;66.40;103631.34;5076884;27;45387;-80
2022/01/14 02:04:25;;;;;;;;;59.25;46.75;;;;;4.07;66.14;103633.03;5079536;28;46517;-80
2022/01/14 02:06:52;;;;;;;;;55.00;45.00;;;;;4.07;66.04;103627.84;5066683;27;45459;-81
2022/01/14 02:09:18;;;;;;;;;61.25;48.50;;;;;4.03;66.30;103619.88;5072784;28;45203;-81
2022/01/14 02:11:43;;;;;;;;;63.50;47.00;;;;;4.03;66.45;103616.38;5071683;28;45362;-82
2022/01/14 02:14:27;;;;;;;;;68.50;51.50;;;;;4.04;66.58;103618.19;5080103;28;45645;-77
2022/01/14 02:17:52;;;;;;;;;70.00;52.50;;;;;4.00;66.53;103609.34;5078715;28;45747;-76
2022/01/14 02:23:06;;;;;;;;;67.25;53.00;;;;;3.96;66.23;103606.56;5037428;28;45581;-81
2022/01/14 02:25:32;;;;;;;;;71.25;54.00;;;;;3.95;66.54;103605.69;5070450;28;46065;-81
2022/01/14 02:28:07;;;;;;;;;57.25;48.00;;;;;3.98;66.56;103604.91;5078813;28;45763;-81
2022/01/14 02:30:38;;;;;;;;;69.25;51.75;;;;;3.97;66.16;103609.25;5060677;28;45479;-84
2022/01/14 02:33:04;;;;;;;;;64.50;48.75;;;;;3.94;66.30;103604.78;5069849;28;45670;-80
2022/01/14 02:35:30;;;;;;;;;59.75;47.00;;;;;3.93;65.93;103597.78;5077877;28;45367;-81
2022/01/14 02:37:55;;;;;;;;;63.00;49.00;;;;;3.93;66.48;103595.19;5065823;28;45905;-81
2022/01/14 02:40:22;;;;;;;;;63.00;50.50;;;;;3.97;66.73;103592.72;5065254;27;45419;-81
2022/01/14 02:42:48;;;;;;;;;63.00;49.50;;;;;3.97;66.84;103587.53;5059909;28;45334;-81
2022/01/14 02:45:14;;;;;;;;;63.50;51.00;;;;;3.98;66.13;103586.69;5060430;28;46271;-81
2022/01/14 02:47:40;;;;;;;;;58.75;47.25;;;;;3.96;66.58;103575.31;5065712;27;45176;-81
2022/01/14 02:50:14;;;;;;;;;63.25;47.00;;;;;3.95;66.71;103577.06;5079703;28;45284;-83
2022/01/14 02:55:20;;;;;;;;;62.50;50.00;;;;;3.94;66.61;103576.16;5065619;28;45351;-79
2022/01/14 02:57:51;;;;;;;;;62.25;48.75;;;;;3.90;66.76;103570.78;5069565;27;45539;-80
2022/01/14 03:00:19;;;;;;;;;59.75;46.75;;;;;3.89;66.31;103568.97;5079425;27;45280;-82
2022/01/14 03:02:47;;;;;;;;;59.75;48.25;;;;;3.88;66.38;103569.78;5062961;28;45313;-82
2022/01/14 03:05:14;;;;;;;;;58.25;46.50;;;;;3.89;66.47;103576.78;5062842;28;46219;-82
2022/01/14 03:07:41;;;;;;;;;59.25;47.50;;;;;3.88;66.61;103567.19;5076483;27;45463;-83
2022/01/14 03:10:07;;;;;;;;;59.50;46.75;;;;;3.83;66.69;103560.09;5071197;27;45291;-83
2022/01/14 03:12:34;;;;;;;;;55.00;46.50;;;;;3.85;66.79;103561.88;5064207;28;45591;-85
2022/01/14 03:14:59;;;;;;;;;62.75;47.25;;;;;3.83;66.75;103564.41;5073683;28;46362;-85
2022/01/14 03:17:26;;;;;;;;;67.75;49.75;;;;;3.84;66.88;103561.00;5062515;28;45472;-85
2022/01/14 03:19:52;;;;;;;;;57.25;45.50;;;;;3.81;66.74;103558.25;5061370;28;45425;-85
2022/01/14 03:22:20;;;;;;;;;61.25;50.25;;;;;3.76;65.94;103545.06;5073740;28;45438;-86
2022/01/14 03:27:12;;;;;;;;;59.50;48.00;;;;;3.77;66.54;103556.34;5073876;28;45219;-83
2022/01/14 03:29:38;;;;;;;;;55.75;46.00;;;;;3.76;66.68;103552.84;5068391;28;45455;-83
2022/01/14 03:32:04;;;;;;;;;67.25;51.00;;;;;3.76;66.54;103547.66;5064399;28;45470;-83
2022/01/14 03:34:32;;;;;;;;;67.75;50.25;;;;;3.76;66.42;103550.25;5062469;28;45223;-83
2022/01/14 03:36:58;;;;;;;;;63.00;50.25;;;;;3.80;66.73;103559.97;5071707;28;45761;-84
2022/01/14 03:39:24;;;;;;;;;53.00;42.00;;;;;3.79;66.67;103559.91;5082861;27;45557;-82
2022/01/14 03:41:50;;;;;;;;;63.00;47.75;;;;;3.76;66.31;103547.66;5079060;27;45523;-82
2022/01/14 03:44:16;;;;;;;;;61.25;49.50;;;;;3.77;66.06;103546.84;5077625;28;47109;-84
2022/01/14 03:46:42;;;;;;;;;57.25;48.25;;;;;3.76;66.62;103544.16;5073290;28;45293;-83
2022/01/14 03:49:07;;;;;;;;;61.00;47.00;;;;;3.74;66.32;103543.22;5082350;28;45452;-83
2022/01/14 03:51:33;;;;;;;;;72.50;50.75;;;;;3.74;66.50;103543.22;5071476;28;45259;-83
2022/01/14 03:53:58;;;;;;;;;68.00;51.00;;;;;3.75;66.00;103539.81;5062120;28;45328;-83
2022/01/14 03:56:25;;;;;;;;;65.75;51.25;;;;;3.74;66.22;103543.22;5061780;28;45212;-83
2022/01/14 03:58:51;;;;;;;;;66.75;51.25;;;;;3.72;66.70;103535.34;5076882;28;45455;-83
2022/01/14 04:01:18;;;;;;;;;70.25;52.75;;;;;3.75;66.36;103538.09;5076361;27;47160;-82
2022/01/14 04:03:44;;;;;;;;;70.00;54.50;;;;;3.75;66.68;103540.69;5071928;28;47982;-81
2022/01/14 04:06:12;;;;;;;;;63.25;50.00;;;;;3.69;66.31;103530.03;5067428;27;46827;-81
2022/01/14 04:08:38;;;;;;;;;64.75;49.00;;;;;3.73;66.82;103539.72;5081359;27;45342;-79
2022/01/14 04:11:04;;;;;;;;;60.75;46.75;;;;;3.70;66.15;103539.63;5075368;28;45238;-81
2022/01/14 04:13:44;;;;;;;;;65.50;50.25;;;;;3.69;66.55;103530.03;5061524;28;45593;-81
2022/01/14 04:16:09;;;;;;;;;61.50;48.25;;;;;3.67;66.63;103534.28;5061449;28;45426;-81
2022/01/14 04:18:35;;;;;;;;;58.00;44.50;;;;;3.65;67.04;103533.31;5075126;28;45351;-81
2022/01/14 04:21:01;;;;;;;;;58.25;46.25;;;;;3.66;66.26;103533.38;5064314;28;45295;-81
2022/01/14 04:23:26;;;;;;;;;61.50;48.25;;;;;3.65;66.00;103528.13;5073523;27;45431;-80
2022/01/14 04:25:53;;;;;;;;;59.50;48.00;;;;;3.64;66.57;103526.34;5080231;28;45235;-81
2022/01/14 04:28:24;;;;;;;;;61.25;49.50;;;;;3.60;66.52;103528.81;5078645;27;45365;-81
2022/01/14 04:30:54;;;;;;;;;57.25;46.75;;;;;3.59;66.54;103524.44;5060914;28;45440;-81
2022/01/14 04:33:21;;;;;;;;;62.50;48.50;;;;;3.62;66.64;103535.78;5061818;28;46101;-81
2022/01/14 04:35:46;;;;;;;;;55.50;45.25;;;;;3.59;66.45;103523.53;5061203;28;45875;-81
2022/01/14 04:38:12;;;;;;;;;58.75;45.00;;;;;3.60;66.13;103522.75;5074001;28;45484;-81
2022/01/14 04:40:37;;;;;;;;;59.75;45.00;;;;;3.60;66.87;103515.78;5061052;28;45493;-80
2022/01/14 04:43:03;;;;;;;;;58.00;43.50;;;;;3.59;66.56;103514.03;5070825;28;45393;-80
2022/01/14 04:48:00;;;;;;;;;59.25;48.50;;;;;3.55;66.92;103504.34;5080561;27;45577;-81
2022/01/14 04:50:26;;;;;;;;;63.00;50.25;;;;;3.54;67.12;103499.06;5080046;28;45396;-81
2022/01/14 04:52:52;;;;;;;;;64.25;51.25;;;;;3.55;66.11;103501.75;5062494;28;46273;-82
2022/01/14 04:55:23;;;;;;;;;55.50;44.00;;;;;3.55;66.63;103499.13;5060964;28;45915;-81
2022/01/14 04:57:49;;;;;;;;;53.75;44.00;;;;;3.54;66.51;103506.84;5077794;28;45195;-81
2022/01/14 05:00:18;;;;;;;;;57.00;43.50;;;;;3.54;66.88;103506.84;5074060;28;45274;-81
2022/01/14 05:02:44;;;;;;;;;56.75;44.25;;;;;3.56;66.82;103508.69;5076240;28;45433;-80
2022/01/14 05:05:10;;;;;;;;;62.25;48.25;;;;;3.53;66.56;103503.38;5079773;28;45489;-80
2022/01/14 05:07:36;;;;;;;;;59.25;48.00;;;;;3.53;66.10;103511.16;5079518;27;45223;-80
2022/01/14 05:12:38;;;;;;;;;61.25;49.25;;;;;3.50;66.91;103500.66;5064820;27;47424;-80
2022/01/14 05:15:05;;;;;;;;;61.75;50.00;;;;;3.52;66.69;103501.59;5060788;28;45893;-80
2022/01/14 05:17:31;;;;;;;;;61.50;49.50;;;;;3.48;66.84;103510.13;5074354;28;45476;-80
2022/01/14 05:19:58;;;;;;;;;64.25;51.25;;;;;3.48;67.00;103510.13;5060240;28;45556;-80
2022/01/14 05:22:26;;;;;;;;;63.25;48.50;;;;;3.46;66.34;103515.22;5063436;28;45448;-80
2022/01/14 05:24:52;;;;;;;;;58.75;44.25;;;;;3.49;66.96;103517.06;5060736;28;45418;-76
2022/01/14 05:27:18;;;;;;;;;65.00;48.25;;;;;3.47;66.78;103503.13;5060060;28;45218;-80
2022/01/14 05:29:43;;;;;;;;;65.25;50.00;;;;;3.47;66.96;103509.22;5074520;28;45498;-80
2022/01/14 05:32:12;;;;;;;;;61.50;51.00;;;;;3.46;66.58;103506.53;5075549;28;45483;-80
2022/01/14 05:34:39;;;;;;;;;64.50;50.25;;;;;3.44;66.20;103505.59;5080926;27;45444;-82
2022/01/14 05:37:06;;;;;;;;;60.50;48.50;;;;;3.46;66.52;103511.72;5067796;28;45421;-84
2022/01/14 05:39:31;;;;;;;;;62.75;48.25;;;;;3.45;66.77;103516.06;5059207;28;46557;-83
2022/01/14 05:41:58;;;;;;;;;63.00;50.00;;;;;3.42;67.03;103518.53;5059328;28;47005;-83
2022/01/14 05:44:24;;;;;;;;;63.75;50.75;;;;;3.41;66.21;103523.69;5067844;28;45153;-82
2022/01/14 05:46:50;;;;;;;;;59.75;48.25;;;;;3.43;66.54;103525.50;5074988;28;45357;-82
2022/01/14 05:49:17;;;;;;;;;60.25;50.00;;;;;3.38;67.11;103525.31;5078715;28;45397;-81
2022/01/14 05:51:43;;;;;;;;;63.25;47.50;;;;;3.38;66.87;103540.03;5059780;28;45473;-80
2022/01/14 05:54:08;;;;;;;;;67.75;52.75;;;;;3.34;67.09;103526.00;5067432;28;45433;-85
2022/01/14 05:56:33;;;;;;;;;59.50;48.25;;;;;3.36;66.87;103531.25;5064818;27;45252;-84
2022/01/14 05:58:59;;;;;;;;;68.25;51.50;;;;;3.34;66.40;103533.81;5059444;27;46749;-83
2022/01/14 06:01:24;;;;;;;;;64.50;49.75;;;;;3.36;66.38;103545.16;5069106;28;46623;-83
2022/01/14 06:03:49;;;;;;;;;58.75;48.00;;;;;3.34;66.86;103532.91;5068136;27;45474;-84
2022/01/14 06:06:15;;;;;;;;;61.50;48.50;;;;;3.35;67.05;103537.31;5065627;28;46042;-81
2022/01/14 06:08:40;;;;;;;;;62.00;48.50;;;;;3.36;67.11;103532.16;5078323;27;45192;-81
2022/01/14 06:11:06;;;;;;;;;60.25;47.00;;;;;3.33;67.08;103519.03;5079166;28;46325;-81
2022/01/14 06:13:31;;;;;;;;;70.50;53.25;;;;;3.34;66.33;103523.41;5080189;27;45242;-80
2022/01/14 06:15:57;;;;;;;;;69.00;54.75;;;;;3.36;67.09;103520.84;5078348;28;45285;-80
2022/01/14 06:18:22;;;;;;;;;73.25;54.25;;;;;3.34;66.99;103525.09;5076883;27;45203;-80
2022/01/14 06:20:48;;;;;;;;;69.25;54.25;;;;;3.36;66.85;103523.47;5078649;28;45598;-80
2022/01/14 06:23:13;;;;;;;;;76.75;59.25;;;;;3.33;66.68;103520.75;5070634;28;45192;-80
2022/01/14 06:25:38;;;;;;;;;73.50;58.25;;;;;3.34;66.84;103526.00;5070484;28;45253;-82
2022/01/14 06:28:04;;;;;;;;;79.75;58.25;;;;;3.36;66.74;103532.16;5058866;28;45616;-80
2022/01/14 06:30:30;;;;;;;;;81.50;58.50;;;;;3.36;66.43;103521.75;5079083;28;45987;-82
2022/01/14 06:32:56;;;;;;;;;80.00;63.50;;;;;3.32;67.24;103519.84;5079749;27;45480;-81
2022/01/14 06:35:23;;;;;;;;;78.25;59.00;;;;;3.31;66.64;103515.47;5078738;28;45501;-80
2022/01/14 06:37:49;;;;;;;;;77.75;59.00;;;;;3.31;66.72;103518.06;5069346;28;45524;-81
2022/01/14 06:40:15;;;;;;;;;75.00;56.25;;;;;3.29;66.80;103511.91;5062002;28;46472;-80
2022/01/14 06:42:41;;;;;;;;;74.75;58.75;;;;;3.31;66.99;103523.25;5074747;28;45704;-79
2022/01/14 06:45:07;;;;;;;;;71.25;55.25;;;;;3.30;67.23;103520.63;5074373;28;45227;-81
2022/01/14 06:47:33;;;;;;;;;67.00;55.00;;;;;3.30;66.92;103531.00;5071164;28;45563;-80
2022/01/14 06:49:58;;;;;;;;;67.00;53.25;;;;;3.29;67.21;103531.81;5059121;28;46330;-78
2022/01/14 06:52:24;;;;;;;;;63.50;51.25;;;;;3.28;66.34;103515.34;5062833;28;45238;-78
2022/01/14 06:54:50;;;;;;;;;77.00;57.25;;;;;3.30;66.76;103521.50;5074187;28;45242;-79
2022/01/14 06:57:16;;;;;;;;;63.00;51.00;;;;;3.31;67.01;103512.88;5065439;28;45515;-80
2022/01/14 06:59:41;;;;;;;;;67.00;51.50;;;;;3.29;66.97;103514.50;5072647;28;46325;-81
2022/01/14 07:02:09;;;;;;;;;76.00;57.25;;;;;3.30;66.58;103516.31;5067916;28;45417;-81
2022/01/14 07:04:35;;;;;;;;;68.50;53.50;;;;;3.30;67.18;103515.41;5065561;27;45330;-82
2022/01/14 07:07:00;;;;;;;;;68.50;53.00;;;;;3.28;66.49;103515.34;5059125;28;45247;-75
2022/01/14 07:09:26;;;;;;;;;71.25;53.75;;;;;3.27;66.26;103510.97;5063738;28;46044;-75
2022/01/14 07:11:57;;;;;;;;;70.25;54.50;;;;;3.29;66.76;103504.13;5059747;28;45483;-75
2022/01/14 07:14:23;;;;;;;;;72.75;55.25;;;;;3.32;67.13;103503.38;5064557;28;45551;-75
2022/01/14 07:16:48;;;;;;;;;71.50;54.50;;;;;3.30;66.35;103498.09;5066943;28;45592;-76
2022/01/14 07:19:16;;;;;;;;;73.25;55.25;;;;;3.32;66.59;103505.97;5070765;27;45357;-75
2022/01/14 07:21:42;;;;;;;;;76.50;58.75;;;;;3.29;66.82;103495.41;5077550;27;45525;-75
2022/01/14 07:24:07;;;;;;;;;69.50;51.75;;;;;3.27;66.79;103495.38;5070805;27;45459;-76
2022/01/14 07:26:33;;;;;;;;;70.25;55.25;;;;;3.26;66.73;103484.06;5067803;28;45290;-75
2022/01/14 07:28:59;;;;;;;;;71.75;56.75;;;;;3.27;67.16;103495.38;5067537;28;46561;-75
2022/01/14 07:31:24;;;;;;;;;89.00;63.50;;;;;3.30;67.09;103494.63;5076853;28;45431;-75
2022/01/14 07:33:50;;;;;;;;;86.00;67.25;;;;;3.29;67.16;103505.81;5071705;27;45506;-75
2022/01/14 07:36:15;;;;;;;;;88.50;69.50;;;;;3.30;66.37;103507.63;5065819;28;45653;-77
2022/01/14 07:38:41;;;;;;;;;88.50;67.25;;;;;3.29;66.76;103498.03;5070209;27;46467;-77
2022/01/14 07:41:06;;;;;;;;;87.25;64.50;;;;;3.28;66.33;103502.34;5067252;28;45420;-74
2022/01/14 07:43:34;;;;;;;;;88.50;66.00;;;;;3.28;67.02;103498.88;5069672;28;45664;-75
2022/01/14 07:46:00;;;;;;;;;82.50;62.75;;;;;3.28;66.49;103497.16;5074575;27;45440;-75
2022/01/14 07:48:25;;;;;;;;;78.00;63.25;;;;;3.30;66.60;103507.63;5068872;27;46390;-74
2022/01/14 07:50:51;;;;;;;;;82.50;61.00;;;;;3.25;66.53;103500.50;5074548;28;45446;-75
2022/01/14 07:53:16;;;;;;;;;78.25;62.00;;;;;3.28;67.13;103514.47;5076527;28;46132;-75
2022/01/14 07:55:42;;;;;;;;;79.00;61.25;;;;;3.29;66.48;103526.63;5076963;27;45443;-77
2022/01/14 07:58:07;;;;;;;;;87.25;65.50;;;;;3.25;66.61;103523.91;5077822;27;46559;-75
2022/01/14 08:00:35;;;;;;;;;87.50;65.75;;;;;3.28;67.08;103523.16;5077248;27;45330;-75
2022/01/14 08:03:01;;;;;;;;;88.00;67.00;;;;;3.24;67.93;103516.94;5081081;27;45487;-75
2022/01/14 08:05:27;;;;;;;;;92.25;68.50;;;;;3.27;67.53;103531.75;5081943;28;45256;-75
2022/01/14 08:07:55;;;;;;;;;89.25;69.00;;;;;3.28;67.04;103533.56;5070873;28;46651;-75
2022/01/14 08:10:21;;;;;;;;;89.25;70.00;;;;;3.25;67.03;103523.91;5065828;28;45704;-75
2022/01/14 08:12:46;;;;;;;;;90.50;72.00;;;;;3.27;66.83;103526.56;5060448;28;45361;-75
2022/01/14 08:15:12;;;;;;;;;88.75;71.75;;;;;3.31;67.27;103528.47;5061081;28;45426;-75
2022/01/14 08:17:38;;;;;;;;;90.25;74.75;;;;;3.30;67.21;103512.81;5061119;28;46431;-75
2022/01/14 08:20:05;;;;;;;;;90.00;75.00;;;;;3.32;67.82;103512.06;5073743;28;45489;-75
2022/01/14 08:22:31;;;;;;;;;92.75;70.25;;;;;3.35;67.21;103513.91;5078799;27;45486;-75
2022/01/14 08:25:02;;;;;;;;;85.50;67.50;;;;;3.40;67.86;103524.50;5071979;28;45339;-75
2022/01/14 08:27:27;;;;;;;;;89.75;71.25;;;;;3.38;67.49;103525.31;5063525;28;45448;-75
2022/01/14 08:29:53;;;;;;;;;89.25;68.50;;;;;3.40;67.67;103521.88;5068387;28;45238;-75
2022/01/14 08:32:19;;;;;;;;;94.00;74.75;;;;;3.44;67.65;103526.38;5074143;27;45218;-75
2022/01/14 08:34:44;;;;;;;;;89.50;69.50;;;;;3.45;67.88;103528.19;5064400;28;45452;-75
2022/01/14 08:37:10;;;;;;;;;87.25;67.75;;;;;3.46;67.70;103530.84;5069456;27;45358;-75
2022/01/14 08:39:35;;;;;;;;;87.00;65.25;;;;;3.49;67.60;103525.78;5064819;28;45489;-75
2022/01/14 08:42:03;;;;;;;;;86.25;64.50;;;;;3.50;67.70;103529.25;5072769;27;45557;-75
2022/01/14 08:44:28;;;;;;;;;83.25;64.25;;;;;3.53;67.19;103524.16;5061229;28;46057;-75
2022/01/14 08:46:55;;;;;;;;;86.00;63.50;;;;;3.54;68.14;103520.75;5065480;28;46452;-75
2022/01/14 08:49:21;;;;;;;;;80.25;61.75;;;;;3.55;68.22;103522.53;5061006;28;45517;-75
2022/01/14 08:51:49;;;;;;;;;79.75;62.00;;;;;3.57;68.38;103531.31;5060532;28;45382;-75
2022/01/14 08:54:14;;;;;;;;;76.25;60.50;;;;;3.63;67.44;103532.38;5062980;28;45683;-75
2022/01/14 08:56:40;;;;;;;;;80.75;60.25;;;;;3.63;67.99;103530.66;5069051;28;46407;-75
2022/01/14 08:59:06;;;;;;;;;76.00;57.75;;;;;3.66;67.49;103535.97;5072724;28;45506;-75
2022/01/14 09:01:31;;;;;;;;;71.75;55.25;;;;;3.72;67.84;103532.75;5079082;28;45474;-75
2022/01/14 09:03:57;;;;;;;;;75.75;57.00;;;;;3.71;67.65;103529.25;5080134;28;45433;-75
2022/01/14 09:06:22;;;;;;;;;71.25;55.75;;;;;3.74;68.05;103523.28;5059792;27;45395;-75
2022/01/14 09:08:48;;;;;;;;;74.25;55.50;;;;;3.80;68.38;103522.66;5070226;28;45458;-75
2022/01/14 09:11:13;;;;;;;;;75.50;56.25;;;;;3.83;68.13;103514.97;5060215;28;45270;-75
2022/01/14 09:13:39;;;;;;;;;72.25;55.00;;;;;3.87;67.98;103523.78;5060625;27;45338;-75
2022/01/14 09:16:04;;;;;;;;;74.75;56.50;;;;;3.88;67.78;103522.94;5068688;28;46002;-75
2022/01/14 09:18:30;;;;;;;;;70.25;53.00;;;;;3.91;68.10;103516.16;5073151;28;45475;-75
2022/01/14 09:20:58;;;;;;;;;65.75;51.25;;;;;3.97;68.57;103518.13;5070325;27;45363;-75
2022/01/14 09:23:25;;;;;;;;;66.25;51.00;;;;;3.98;68.58;103522.50;5060291;28;45683;-75
2022/01/14 09:25:54;;;;;;;;;63.25;51.00;;;;;4.03;68.33;103526.19;5069683;28;45511;-75
2022/01/14 09:28:19;;;;;;;;;69.50;53.75;;;;;4.08;68.50;103517.66;5061019;28;45472;-75
2022/01/14 09:30:45;;;;;;;;;63.25;49.00;;;;;4.11;68.16;103512.56;5060131;28;46057;-75
2022/01/14 09:33:10;;;;;;;;;64.75;51.75;;;;;4.14;68.46;103515.31;5069273;28;45295;-74
2022/01/14 09:35:37;;;;;;;;;68.00;51.50;;;;;4.20;68.24;103512.06;5074883;27;45971;-73
2022/01/14 09:38:03;;;;;;;;;51.75;40.25;;;;;4.21;68.71;103514.72;5073166;28;45220;-73
2022/01/14 09:40:28;;;;;;;;;66.75;52.00;;;;;4.27;68.79;103507.13;5061332;28;45319;-73
2022/01/14 09:43:00;;;;;;;;;72.00;58.00;;;;;4.33;68.85;103510.81;5061288;28;45195;-73
2022/01/14 09:45:28;;;;;;;;;71.00;53.75;;;;;4.36;68.76;103509.22;5078309;28;48302;-73
2022/01/14 09:47:54;;;;;;;;;67.75;53.25;;;;;4.42;68.90;103508.53;5063311;27;45686;-73
2022/01/14 09:50:20;;;;;;;;;72.50;56.25;;;;;4.50;69.09;103521.84;5070537;28;45422;-73
2022/01/14 09:52:47;;;;;;;;;68.75;53.75;;;;;4.53;68.83;103516.78;5061973;28;45742;-73
2022/01/14 09:55:12;;;;;;;;;73.25;57.50;;;;;4.58;69.21;103515.22;5070628;28;45567;-74
2022/01/14 09:57:38;;;;;;;;;66.50;53.50;;;;;4.64;68.63;103519.78;5078292;27;45608;-74
2022/01/14 10:00:05;;;;;;;;;65.75;52.50;;;;;4.69;68.89;103522.56;5065219;28;45401;-74
2022/01/14 10:02:37;;;;;;;;;64.50;52.25;;;;;4.71;68.94;103521.78;5072879;27;45584;-74
2022/01/14 10:05:05;;;;;;;;;64.50;50.50;;;;;4.81;68.84;103529.94;5060439;28;45324;-73
2022/01/14 10:07:32;;;;;;;;;67.75;52.75;;;;;4.86;69.01;103536.22;5071388;27;45311;-73
2022/01/14 10:10:00;;;;;;;;;63.25;48.00;;;;;4.90;69.06;103534.59;5058737;28;45421;-74
2022/01/14 10:12:30;;;;;;;;;64.75;51.00;;;;;4.94;68.86;103534.75;5070482;28;45447;-74
2022/01/14 10:14:59;;;;;;;;;64.50;52.00;;;;;4.97;68.36;103535.69;5065931;27;45496;-73
2022/01/14 10:17:33;;;;;;;;;61.75;47.75;;;;;4.99;68.75;103537.53;5065404;28;45334;-74
2022/01/14 10:19:59;;;;;;;;;73.00;53.00;;;;;5.05;68.83;103542.97;5074303;28;45387;-74
2022/01/14 10:22:27;;;;;;;;;61.00;49.75;;;;;5.07;68.53;103529.97;5078884;28;45305;-74
2022/01/14 10:25:19;;;;;;;;;63.00;50.75;;;;;5.15;68.51;103538.09;5064031;28;46182;-74
2022/01/14 10:27:50;;;;;;;;;69.25;52.50;;;;;5.15;68.45;103533.75;5063102;28;45509;-74
2022/01/14 10:30:20;;;;;;;;;67.50;51.50;;;;;5.23;68.54;103540.97;5059643;28;45854;-74
2022/01/14 10:33:03;;;;;;;;;63.00;50.75;;;;;5.27;68.21;103529.78;5070143;28;45549;-74
2022/01/14 10:35:31;;;;;;;;;69.25;53.50;;;;;5.29;68.50;103531.63;5071399;28;45244;-74
2022/01/14 10:38:04;;;;;;;;;67.50;52.25;;;;;5.32;68.10;103520.41;5059528;28;45437;-74
2022/01/14 10:40:34;;;;;;;;;65.75;50.50;;;;;5.39;68.35;103519.78;5069981;28;45414;-74
2022/01/14 10:43:08;;;;;;;;;68.50;52.25;;;;;5.42;67.99;103520.72;5066103;28;45476;-74
2022/01/14 10:45:35;;;;;;;;;66.25;52.00;;;;;5.44;68.18;103519.03;5064282;28;46678;-74
2022/01/14 10:48:14;;;;;;;;;64.25;51.25;;;;;5.49;68.29;103512.25;5067614;28;45447;-74
2022/01/14 10:50:44;;;;;;;;;68.00;52.50;;;;;5.50;68.10;103509.72;5070229;28;45227;-74
2022/01/14 10:53:15;;;;;;;;;67.75;54.00;;;;;5.53;67.92;103508.94;5069978;28;45325;-74
2022/01/14 10:55:46;;;;;;;;;66.50;51.25;;;;;5.59;67.87;103500.41;5074651;28;45509;-74
2022/01/14 10:58:15;;;;;;;;;68.00;51.00;;;;;5.61;67.87;103497.00;5067737;28;45346;-74
2022/01/14 11:00:49;;;;;;;;;73.00;53.25;;;;;5.65;67.67;103481.47;5067309;28;45267;-74
2022/01/14 11:03:16;;;;;;;;;65.25;51.00;;;;;5.68;67.73;103484.19;5071356;28;45730;-74
2022/01/14 11:05:42;;;;;;;;;68.75;50.25;;;;;5.73;67.80;103490.41;5062365;28;47296;-74
2022/01/14 11:08:08;;;;;;;;;65.25;50.00;;;;;5.76;67.69;103479.19;5072930;27;45336;-74
2022/01/14 11:10:37;;;;;;;;;65.75;52.25;;;;;5.79;67.69;103480.19;5072661;27;45330;-74
2022/01/14 11:13:06;;;;;;;;;64.75;50.75;;;;;5.85;67.44;103489.94;5059124;28;45641;-74
2022/01/14 11:15:33;;;;;;;;;60.75;49.75;;;;;5.87;67.82;103482.13;5058772;28;45448;-74
2022/01/14 11:18:02;;;;;;;;;62.25;48.75;;;;;5.90;67.73;103487.47;5063741;28;45699;-74
2022/01/14 11:20:33;;;;;;;;;60.00;48.75;;;;;5.92;67.63;103486.69;5062122;28;45435;-74
2022/01/14 11:23:15;;;;;;;;;66.75;53.25;;;;;5.96;67.64;103479.81;5080126;28;47020;-75
2022/01/14 11:26:06;;;;;;;;;65.25;50.25;;;;;6.00;67.44;103484.28;5066510;28;46571;-75
2022/01/14 11:28:36;;;;;;;;;62.00;47.00;;;;;6.01;66.98;103473.00;5073340;27;45247;-74
2022/01/14 11:31:29;;;;;;;;;65.75;48.00;;;;;6.05;67.38;103477.47;5062038;28;45418;-74
2022/01/14 11:33:57;;;;;;;;;61.00;50.00;;;;;6.09;66.97;103470.66;5072024;27;45399;-74
2022/01/14 11:36:24;;;;;;;;;57.75;45.75;;;;;6.10;67.20;103468.94;5061819;28;45866;-74
2022/01/14 11:38:49;;;;;;;;;60.50;45.75;;;;;6.16;66.58;103463.91;5073730;28;45236;-75
2022/01/14 11:41:18;;;;;;;;;62.00;46.50;;;;;6.19;66.54;103458.78;5062440;28;45364;-75
2022/01/14 11:43:48;;;;;;;;;54.25;43.00;;;;;6.21;66.69;103456.19;5062417;28;45302;-74